sensor_id;sensor_type;location;lat;lon;timestamp;P1;durP1;ratioP1;P2;durP2;ratioP2
7017;SDS011;3549;42.162;24.726;2023-04-25T00:00:15;6.60;;;4.20;;
7017;SDS011;3549;42.162;24.726;2023-04-25T00:02:41;7.33;;;4.13;;
7017;SDS011;3549;42.162;24.726;2023-04-25T00:05:07;7.20;;;4.67;;
7017;SDS011;3549;42.162;24.726;2023-04-25T00:07:33;5.70;;;4.17;;
7017;SDS011;3549;42.162;24.726;2023-04-25T00:09:59;6.40;;;4.37;;
7017;SDS011;3549;42.162;24.726;2023-04-25T00:12:25;6.80;;;4.07;;
7017;SDS011;3549;42.162;24.726;2023-04-25T00:14:53;7.10;;;4.60;;
7017;SDS011;3549;42.162;24.726;2023-04-25T00:17:18;6.63;;;4.30;;
7017;SDS011;3549;42.162;24.726;2023-04-25T00:19:44;6.20;;;4.17;;
7017;SDS011;3549;42.162;24.726;2023-04-25T00:22:11;6.20;;;4.20;;
7017;SDS011;3549;42.162;24.726;2023-04-25T00:24:37;6.50;;;4.20;;
7017;SDS011;3549;42.162;24.726;2023-04-25T00:27:02;6.73;;;4.30;;
7017;SDS011;3549;42.162;24.726;2023-04-25T00:29:28;6.23;;;4.30;;
7017;SDS011;3549;42.162;24.726;2023-04-25T00:31:53;7.93;;;4.60;;
7017;SDS011;3549;42.162;24.726;2023-04-25T00:34:18;6.17;;;4.37;;
7017;SDS011;3549;42.162;24.726;2023-04-25T00:36:44;5.20;;;3.57;;
7017;SDS011;3549;42.162;24.726;2023-04-25T00:39:09;5.57;;;3.80;;
7017;SDS011;3549;42.162;24.726;2023-04-25T00:41:36;7.40;;;4.30;;
7017;SDS011;3549;42.162;24.726;2023-04-25T00:44:02;5.43;;;4.10;;
7017;SDS011;3549;42.162;24.726;2023-04-25T00:46:30;6.90;;;4.20;;
7017;SDS011;3549;42.162;24.726;2023-04-25T00:48:56;5.47;;;4.17;;
7017;SDS011;3549;42.162;24.726;2023-04-25T00:51:21;6.37;;;4.10;;
7017;SDS011;3549;42.162;24.726;2023-04-25T00:53:48;7.63;;;4.20;;
7017;SDS011;3549;42.162;24.726;2023-04-25T00:56:15;5.87;;;3.97;;
7017;SDS011;3549;42.162;24.726;2023-04-25T00:58:41;8.10;;;4.20;;
7017;SDS011;3549;42.162;24.726;2023-04-25T01:01:07;5.87;;;4.03;;
7017;SDS011;3549;42.162;24.726;2023-04-25T01:03:34;6.83;;;4.63;;
7017;SDS011;3549;42.162;24.726;2023-04-25T01:06:05;7.70;;;4.80;;
7017;SDS011;3549;42.162;24.726;2023-04-25T01:08:34;6.83;;;4.67;;
7017;SDS011;3549;42.162;24.726;2023-04-25T01:11:01;6.67;;;4.60;;
7017;SDS011;3549;42.162;24.726;2023-04-25T01:13:26;5.70;;;4.30;;
7017;SDS011;3549;42.162;24.726;2023-04-25T01:15:52;7.77;;;5.00;;
7017;SDS011;3549;42.162;24.726;2023-04-25T01:18:18;8.17;;;4.97;;
7017;SDS011;3549;42.162;24.726;2023-04-25T01:20:45;8.63;;;4.97;;
7017;SDS011;3549;42.162;24.726;2023-04-25T01:23:11;8.80;;;4.40;;
7017;SDS011;3549;42.162;24.726;2023-04-25T01:25:38;6.10;;;4.50;;
7017;SDS011;3549;42.162;24.726;2023-04-25T01:28:05;6.97;;;4.33;;
7017;SDS011;3549;42.162;24.726;2023-04-25T01:30:30;7.83;;;4.50;;
7017;SDS011;3549;42.162;24.726;2023-04-25T01:32:56;6.50;;;4.50;;
7017;SDS011;3549;42.162;24.726;2023-04-25T01:35:22;5.60;;;4.20;;
7017;SDS011;3549;42.162;24.726;2023-04-25T01:37:49;6.90;;;4.40;;
7017;SDS011;3549;42.162;24.726;2023-04-25T01:40:15;6.87;;;4.27;;
7017;SDS011;3549;42.162;24.726;2023-04-25T01:42:43;5.60;;;4.07;;
7017;SDS011;3549;42.162;24.726;2023-04-25T01:45:10;7.90;;;4.50;;
7017;SDS011;3549;42.162;24.726;2023-04-25T01:47:37;7.07;;;4.73;;
7017;SDS011;3549;42.162;24.726;2023-04-25T01:50:05;6.37;;;4.13;;
7017;SDS011;3549;42.162;24.726;2023-04-25T01:52:32;6.80;;;4.30;;
7017;SDS011;3549;42.162;24.726;2023-04-25T01:54:59;6.77;;;4.57;;
7017;SDS011;3549;42.162;24.726;2023-04-25T01:57:26;7.40;;;4.53;;
7017;SDS011;3549;42.162;24.726;2023-04-25T01:59:51;6.47;;;4.33;;
7017;SDS011;3549;42.162;24.726;2023-04-25T02:02:23;8.40;;;5.00;;
7017;SDS011;3549;42.162;24.726;2023-04-25T02:04:48;12.10;;;5.40;;
7017;SDS011;3549;42.162;24.726;2023-04-25T02:07:14;10.03;;;5.37;;
7017;SDS011;3549;42.162;24.726;2023-04-25T02:09:39;9.10;;;5.50;;
7017;SDS011;3549;42.162;24.726;2023-04-25T02:12:05;8.77;;;5.73;;
7017;SDS011;3549;42.162;24.726;2023-04-25T02:14:30;11.17;;;6.03;;
7017;SDS011;3549;42.162;24.726;2023-04-25T02:16:56;9.03;;;5.83;;
7017;SDS011;3549;42.162;24.726;2023-04-25T02:19:22;10.47;;;6.30;;
7017;SDS011;3549;42.162;24.726;2023-04-25T02:21:47;10.23;;;5.77;;
7017;SDS011;3549;42.162;24.726;2023-04-25T02:24:12;9.57;;;6.00;;
7017;SDS011;3549;42.162;24.726;2023-04-25T02:26:38;10.30;;;6.03;;
7017;SDS011;3549;42.162;24.726;2023-04-25T02:29:03;10.90;;;6.60;;
7017;SDS011;3549;42.162;24.726;2023-04-25T02:31:28;13.17;;;6.90;;
7017;SDS011;3549;42.162;24.726;2023-04-25T02:33:54;12.23;;;7.63;;
7017;SDS011;3549;42.162;24.726;2023-04-25T02:36:19;14.47;;;8.13;;
7017;SDS011;3549;42.162;24.726;2023-04-25T02:38:45;14.83;;;8.27;;
7017;SDS011;3549;42.162;24.726;2023-04-25T02:41:10;14.53;;;8.60;;
7017;SDS011;3549;42.162;24.726;2023-04-25T02:43:35;15.30;;;8.53;;
7017;SDS011;3549;42.162;24.726;2023-04-25T02:46:01;16.40;;;9.07;;
7017;SDS011;3549;42.162;24.726;2023-04-25T02:48:26;16.10;;;8.87;;
7017;SDS011;3549;42.162;24.726;2023-04-25T02:50:52;19.07;;;9.70;;
7017;SDS011;3549;42.162;24.726;2023-04-25T02:53:17;21.37;;;8.97;;
7017;SDS011;3549;42.162;24.726;2023-04-25T02:55:43;16.63;;;7.83;;
7017;SDS011;3549;42.162;24.726;2023-04-25T02:58:08;17.17;;;8.70;;
7017;SDS011;3549;42.162;24.726;2023-04-25T03:00:33;16.17;;;8.83;;
7017;SDS011;3549;42.162;24.726;2023-04-25T03:02:59;15.67;;;8.47;;
7017;SDS011;3549;42.162;24.726;2023-04-25T03:05:25;15.57;;;7.73;;
7017;SDS011;3549;42.162;24.726;2023-04-25T03:07:50;16.60;;;8.60;;
7017;SDS011;3549;42.162;24.726;2023-04-25T03:10:15;13.77;;;7.70;;
7017;SDS011;3549;42.162;24.726;2023-04-25T03:12:41;14.20;;;7.70;;
7017;SDS011;3549;42.162;24.726;2023-04-25T03:15:06;16.00;;;8.40;;
7017;SDS011;3549;42.162;24.726;2023-04-25T03:17:32;16.43;;;8.13;;
7017;SDS011;3549;42.162;24.726;2023-04-25T03:19:58;15.57;;;8.13;;
7017;SDS011;3549;42.162;24.726;2023-04-25T03:22:23;15.40;;;8.13;;
7017;SDS011;3549;42.162;24.726;2023-04-25T03:24:49;13.73;;;7.20;;
7017;SDS011;3549;42.162;24.726;2023-04-25T03:27:15;13.47;;;7.07;;
7017;SDS011;3549;42.162;24.726;2023-04-25T03:29:40;13.20;;;7.23;;
7017;SDS011;3549;42.162;24.726;2023-04-25T03:32:06;11.60;;;6.93;;
7017;SDS011;3549;42.162;24.726;2023-04-25T03:34:31;12.17;;;6.93;;
7017;SDS011;3549;42.162;24.726;2023-04-25T03:36:57;10.53;;;6.67;;
7017;SDS011;3549;42.162;24.726;2023-04-25T03:39:22;12.40;;;6.80;;
7017;SDS011;3549;42.162;24.726;2023-04-25T03:41:48;11.13;;;6.77;;
7017;SDS011;3549;42.162;24.726;2023-04-25T03:44:13;11.83;;;6.67;;
7017;SDS011;3549;42.162;24.726;2023-04-25T03:46:39;12.47;;;7.50;;
7017;SDS011;3549;42.162;24.726;2023-04-25T03:49:05;11.87;;;7.20;;
7017;SDS011;3549;42.162;24.726;2023-04-25T03:51:30;12.37;;;6.87;;
7017;SDS011;3549;42.162;24.726;2023-04-25T03:53:56;12.73;;;7.70;;
7017;SDS011;3549;42.162;24.726;2023-04-25T03:56:21;12.27;;;7.17;;
7017;SDS011;3549;42.162;24.726;2023-04-25T03:58:47;15.07;;;7.77;;
7017;SDS011;3549;42.162;24.726;2023-04-25T04:01:12;12.70;;;7.83;;
7017;SDS011;3549;42.162;24.726;2023-04-25T04:03:38;13.07;;;7.80;;
7017;SDS011;3549;42.162;24.726;2023-04-25T04:06:03;14.70;;;7.80;;
7017;SDS011;3549;42.162;24.726;2023-04-25T04:08:30;12.97;;;7.50;;
7017;SDS011;3549;42.162;24.726;2023-04-25T04:11:00;16.53;;;9.17;;
7017;SDS011;3549;42.162;24.726;2023-04-25T04:13:26;14.73;;;9.20;;
7017;SDS011;3549;42.162;24.726;2023-04-25T04:15:52;13.10;;;7.73;;
7017;SDS011;3549;42.162;24.726;2023-04-25T04:18:17;13.27;;;7.70;;
7017;SDS011;3549;42.162;24.726;2023-04-25T04:20:43;15.60;;;8.67;;
7017;SDS011;3549;42.162;24.726;2023-04-25T04:23:08;17.97;;;10.23;;
7017;SDS011;3549;42.162;24.726;2023-04-25T04:25:34;17.33;;;9.37;;
7017;SDS011;3549;42.162;24.726;2023-04-25T04:28:00;20.67;;;9.73;;
7017;SDS011;3549;42.162;24.726;2023-04-25T04:30:26;24.83;;;16.87;;
7017;SDS011;3549;42.162;24.726;2023-04-25T04:32:54;22.43;;;14.30;;
7017;SDS011;3549;42.162;24.726;2023-04-25T04:35:21;18.27;;;9.73;;
7017;SDS011;3549;42.162;24.726;2023-04-25T04:37:47;21.00;;;10.03;;
7017;SDS011;3549;42.162;24.726;2023-04-25T04:40:13;16.43;;;9.20;;
7017;SDS011;3549;42.162;24.726;2023-04-25T04:42:40;18.03;;;8.83;;
7017;SDS011;3549;42.162;24.726;2023-04-25T04:45:06;20.07;;;8.37;;
7017;SDS011;3549;42.162;24.726;2023-04-25T04:47:32;12.77;;;7.80;;
7017;SDS011;3549;42.162;24.726;2023-04-25T04:49:58;13.90;;;7.67;;
7017;SDS011;3549;42.162;24.726;2023-04-25T04:52:24;14.37;;;8.03;;
7017;SDS011;3549;42.162;24.726;2023-04-25T04:54:49;12.57;;;7.17;;
7017;SDS011;3549;42.162;24.726;2023-04-25T04:57:15;12.20;;;7.63;;
7017;SDS011;3549;42.162;24.726;2023-04-25T04:59:41;12.70;;;7.57;;
7017;SDS011;3549;42.162;24.726;2023-04-25T05:02:07;18.17;;;8.10;;
7017;SDS011;3549;42.162;24.726;2023-04-25T05:04:32;13.20;;;7.30;;
7017;SDS011;3549;42.162;24.726;2023-04-25T05:06:58;15.00;;;7.43;;
7017;SDS011;3549;42.162;24.726;2023-04-25T05:09:23;12.47;;;7.47;;
7017;SDS011;3549;42.162;24.726;2023-04-25T05:11:51;11.47;;;7.23;;
7017;SDS011;3549;42.162;24.726;2023-04-25T05:14:16;11.90;;;8.03;;
7017;SDS011;3549;42.162;24.726;2023-04-25T05:16:42;15.03;;;7.67;;
7017;SDS011;3549;42.162;24.726;2023-04-25T05:19:08;12.77;;;8.17;;
7017;SDS011;3549;42.162;24.726;2023-04-25T05:21:34;25.13;;;18.90;;
7017;SDS011;3549;42.162;24.726;2023-04-25T05:23:59;26.67;;;20.07;;
7017;SDS011;3549;42.162;24.726;2023-04-25T05:26:25;28.87;;;18.20;;
7017;SDS011;3549;42.162;24.726;2023-04-25T05:28:50;20.20;;;12.23;;
7017;SDS011;3549;42.162;24.726;2023-04-25T05:31:16;19.03;;;10.33;;
7017;SDS011;3549;42.162;24.726;2023-04-25T05:33:41;15.23;;;9.13;;
7017;SDS011;3549;42.162;24.726;2023-04-25T05:36:07;14.17;;;9.77;;
7017;SDS011;3549;42.162;24.726;2023-04-25T05:38:33;16.13;;;8.93;;
7017;SDS011;3549;42.162;24.726;2023-04-25T05:40:58;14.63;;;8.77;;
7017;SDS011;3549;42.162;24.726;2023-04-25T05:43:24;14.43;;;8.93;;
7017;SDS011;3549;42.162;24.726;2023-04-25T05:45:49;81.60;;;49.13;;
7017;SDS011;3549;42.162;24.726;2023-04-25T05:48:15;15.97;;;10.00;;
7017;SDS011;3549;42.162;24.726;2023-04-25T05:50:40;35.63;;;16.33;;
7017;SDS011;3549;42.162;24.726;2023-04-25T05:53:06;32.57;;;16.47;;
7017;SDS011;3549;42.162;24.726;2023-04-25T05:55:31;18.37;;;11.70;;
7017;SDS011;3549;42.162;24.726;2023-04-25T05:57:56;33.20;;;21.07;;
7017;SDS011;3549;42.162;24.726;2023-04-25T06:00:22;37.17;;;22.27;;
7017;SDS011;3549;42.162;24.726;2023-04-25T06:02:47;38.13;;;25.60;;
7017;SDS011;3549;42.162;24.726;2023-04-25T06:05:13;30.30;;;18.10;;
7017;SDS011;3549;42.162;24.726;2023-04-25T06:07:38;24.70;;;13.43;;
7017;SDS011;3549;42.162;24.726;2023-04-25T06:10:04;14.47;;;9.53;;
7017;SDS011;3549;42.162;24.726;2023-04-25T06:12:32;14.30;;;8.93;;
7017;SDS011;3549;42.162;24.726;2023-04-25T06:14:58;18.17;;;10.90;;
7017;SDS011;3549;42.162;24.726;2023-04-25T06:17:23;19.47;;;11.17;;
7017;SDS011;3549;42.162;24.726;2023-04-25T06:19:49;15.47;;;8.97;;
7017;SDS011;3549;42.162;24.726;2023-04-25T06:22:15;13.87;;;8.97;;
7017;SDS011;3549;42.162;24.726;2023-04-25T06:24:40;15.53;;;9.80;;
7017;SDS011;3549;42.162;24.726;2023-04-25T06:27:06;16.03;;;9.40;;
7017;SDS011;3549;42.162;24.726;2023-04-25T06:29:31;14.33;;;9.37;;
7017;SDS011;3549;42.162;24.726;2023-04-25T06:31:57;16.17;;;9.40;;
7017;SDS011;3549;42.162;24.726;2023-04-25T06:34:22;14.33;;;7.80;;
7017;SDS011;3549;42.162;24.726;2023-04-25T06:36:47;12.67;;;7.23;;
7017;SDS011;3549;42.162;24.726;2023-04-25T06:39:13;17.13;;;8.90;;
7017;SDS011;3549;42.162;24.726;2023-04-25T06:41:38;15.07;;;8.83;;
7017;SDS011;3549;42.162;24.726;2023-04-25T06:44:04;15.97;;;9.07;;
7017;SDS011;3549;42.162;24.726;2023-04-25T06:46:29;12.60;;;8.33;;
7017;SDS011;3549;42.162;24.726;2023-04-25T06:48:54;14.33;;;9.17;;
7017;SDS011;3549;42.162;24.726;2023-04-25T06:51:20;14.43;;;8.47;;
7017;SDS011;3549;42.162;24.726;2023-04-25T06:53:45;16.67;;;9.80;;
7017;SDS011;3549;42.162;24.726;2023-04-25T06:56:11;15.30;;;9.00;;
7017;SDS011;3549;42.162;24.726;2023-04-25T06:58:36;22.37;;;10.50;;
7017;SDS011;3549;42.162;24.726;2023-04-25T07:01:02;13.70;;;9.10;;
7017;SDS011;3549;42.162;24.726;2023-04-25T07:03:27;12.40;;;8.57;;
7017;SDS011;3549;42.162;24.726;2023-04-25T07:05:53;13.03;;;8.77;;
7017;SDS011;3549;42.162;24.726;2023-04-25T07:08:18;13.57;;;8.73;;
7017;SDS011;3549;42.162;24.726;2023-04-25T07:10:45;15.07;;;8.30;;
7017;SDS011;3549;42.162;24.726;2023-04-25T07:13:11;14.70;;;10.07;;
7017;SDS011;3549;42.162;24.726;2023-04-25T07:15:36;16.30;;;11.37;;
7017;SDS011;3549;42.162;24.726;2023-04-25T07:18:02;26.20;;;17.33;;
7017;SDS011;3549;42.162;24.726;2023-04-25T07:20:27;14.70;;;8.97;;
7017;SDS011;3549;42.162;24.726;2023-04-25T07:22:53;12.53;;;8.17;;
7017;SDS011;3549;42.162;24.726;2023-04-25T07:25:19;16.23;;;10.60;;
7017;SDS011;3549;42.162;24.726;2023-04-25T07:27:45;13.83;;;8.20;;
7017;SDS011;3549;42.162;24.726;2023-04-25T07:30:10;11.70;;;8.67;;
7017;SDS011;3549;42.162;24.726;2023-04-25T07:32:37;14.43;;;8.70;;
7017;SDS011;3549;42.162;24.726;2023-04-25T07:35:03;11.57;;;7.90;;
7017;SDS011;3549;42.162;24.726;2023-04-25T07:37:28;12.83;;;8.87;;
7017;SDS011;3549;42.162;24.726;2023-04-25T07:39:54;10.47;;;7.53;;
7017;SDS011;3549;42.162;24.726;2023-04-25T07:42:19;11.47;;;7.73;;
7017;SDS011;3549;42.162;24.726;2023-04-25T07:44:46;10.03;;;7.40;;
7017;SDS011;3549;42.162;24.726;2023-04-25T07:47:12;11.43;;;7.80;;
7017;SDS011;3549;42.162;24.726;2023-04-25T07:49:38;11.87;;;7.40;;
7017;SDS011;3549;42.162;24.726;2023-04-25T07:52:04;7.23;;;5.93;;
7017;SDS011;3549;42.162;24.726;2023-04-25T07:54:33;8.40;;;6.00;;
7017;SDS011;3549;42.162;24.726;2023-04-25T07:56:58;7.40;;;5.53;;
7017;SDS011;3549;42.162;24.726;2023-04-25T07:59:24;6.83;;;5.57;;
7017;SDS011;3549;42.162;24.726;2023-04-25T08:01:50;9.47;;;6.00;;
7017;SDS011;3549;42.162;24.726;2023-04-25T08:04:15;10.33;;;5.80;;
7017;SDS011;3549;42.162;24.726;2023-04-25T08:06:41;9.10;;;6.00;;
7017;SDS011;3549;42.162;24.726;2023-04-25T08:09:08;9.00;;;6.30;;
7017;SDS011;3549;42.162;24.726;2023-04-25T08:11:34;8.77;;;6.07;;
7017;SDS011;3549;42.162;24.726;2023-04-25T08:14:00;10.07;;;5.33;;
7017;SDS011;3549;42.162;24.726;2023-04-25T08:16:25;7.20;;;5.77;;
7017;SDS011;3549;42.162;24.726;2023-04-25T08:18:51;8.27;;;4.93;;
7017;SDS011;3549;42.162;24.726;2023-04-25T08:21:16;6.33;;;4.90;;
7017;SDS011;3549;42.162;24.726;2023-04-25T08:23:42;6.87;;;4.30;;
7017;SDS011;3549;42.162;24.726;2023-04-25T08:26:07;6.00;;;4.23;;
7017;SDS011;3549;42.162;24.726;2023-04-25T08:28:33;5.30;;;4.37;;
7017;SDS011;3549;42.162;24.726;2023-04-25T08:30:58;6.20;;;4.50;;
7017;SDS011;3549;42.162;24.726;2023-04-25T08:33:24;6.63;;;4.70;;
7017;SDS011;3549;42.162;24.726;2023-04-25T08:35:50;11.50;;;6.40;;
7017;SDS011;3549;42.162;24.726;2023-04-25T08:38:15;8.67;;;5.60;;
7017;SDS011;3549;42.162;24.726;2023-04-25T08:40:41;7.37;;;5.30;;
7017;SDS011;3549;42.162;24.726;2023-04-25T08:43:08;7.60;;;5.33;;
7017;SDS011;3549;42.162;24.726;2023-04-25T08:45:40;8.13;;;5.60;;
7017;SDS011;3549;42.162;24.726;2023-04-25T08:48:11;9.03;;;5.87;;
7017;SDS011;3549;42.162;24.726;2023-04-25T08:50:43;8.40;;;5.90;;
7017;SDS011;3549;42.162;24.726;2023-04-25T08:53:26;11.60;;;7.60;;
7017;SDS011;3549;42.162;24.726;2023-04-25T08:55:56;8.37;;;6.10;;
7017;SDS011;3549;42.162;24.726;2023-04-25T08:58:24;8.83;;;5.83;;
7017;SDS011;3549;42.162;24.726;2023-04-25T09:01:22;12.10;;;5.67;;
7017;SDS011;3549;42.162;24.726;2023-04-25T09:04:20;8.20;;;5.67;;
7017;SDS011;3549;42.162;24.726;2023-04-25T09:06:47;7.53;;;5.37;;
7017;SDS011;3549;42.162;24.726;2023-04-25T09:15:54;8.53;;;6.30;;
7017;SDS011;3549;42.162;24.726;2023-04-25T09:18:31;7.97;;;6.50;;
7017;SDS011;3549;42.162;24.726;2023-04-25T09:21:04;11.57;;;6.03;;
7017;SDS011;3549;42.162;24.726;2023-04-25T09:23:38;10.73;;;6.30;;
7017;SDS011;3549;42.162;24.726;2023-04-25T09:26:06;8.40;;;5.90;;
7017;SDS011;3549;42.162;24.726;2023-04-25T09:28:32;7.97;;;6.13;;
7017;SDS011;3549;42.162;24.726;2023-04-25T09:30:57;8.03;;;5.80;;
7017;SDS011;3549;42.162;24.726;2023-04-25T09:33:29;8.33;;;6.10;;
7017;SDS011;3549;42.162;24.726;2023-04-25T09:38:43;7.07;;;5.73;;
7017;SDS011;3549;42.162;24.726;2023-04-25T09:41:10;9.77;;;6.13;;
7017;SDS011;3549;42.162;24.726;2023-04-25T09:43:36;7.67;;;5.80;;
7017;SDS011;3549;42.162;24.726;2023-04-25T09:46:02;9.17;;;6.23;;
7017;SDS011;3549;42.162;24.726;2023-04-25T09:48:28;7.77;;;6.83;;
7017;SDS011;3549;42.162;24.726;2023-04-25T09:51:10;11.13;;;7.37;;
7017;SDS011;3549;42.162;24.726;2023-04-25T09:53:39;9.93;;;7.20;;
7017;SDS011;3549;42.162;24.726;2023-04-25T09:56:07;10.13;;;7.20;;
7017;SDS011;3549;42.162;24.726;2023-04-25T09:58:35;10.27;;;6.63;;
7017;SDS011;3549;42.162;24.726;2023-04-25T10:01:02;8.90;;;7.00;;
7017;SDS011;3549;42.162;24.726;2023-04-25T10:03:29;8.37;;;6.40;;
7017;SDS011;3549;42.162;24.726;2023-04-25T10:06:00;9.23;;;6.50;;
7017;SDS011;3549;42.162;24.726;2023-04-25T10:08:34;10.20;;;6.20;;
7017;SDS011;3549;42.162;24.726;2023-04-25T10:11:03;7.10;;;5.53;;
7017;SDS011;3549;42.162;24.726;2023-04-25T10:13:30;7.53;;;5.07;;
7017;SDS011;3549;42.162;24.726;2023-04-25T10:16:00;9.50;;;6.00;;
7017;SDS011;3549;42.162;24.726;2023-04-25T10:18:27;6.87;;;5.47;;
7017;SDS011;3549;42.162;24.726;2023-04-25T10:20:54;6.67;;;5.00;;
7017;SDS011;3549;42.162;24.726;2023-04-25T10:23:21;8.83;;;6.63;;
7017;SDS011;3549;42.162;24.726;2023-04-25T10:25:46;8.80;;;6.00;;
7017;SDS011;3549;42.162;24.726;2023-04-25T10:28:13;8.03;;;5.37;;
7017;SDS011;3549;42.162;24.726;2023-04-25T10:30:49;7.17;;;5.30;;
7017;SDS011;3549;42.162;24.726;2023-04-25T10:33:28;6.73;;;5.23;;
7017;SDS011;3549;42.162;24.726;2023-04-25T10:38:36;7.87;;;6.23;;
7017;SDS011;3549;42.162;24.726;2023-04-25T10:41:03;7.50;;;5.60;;
7017;SDS011;3549;42.162;24.726;2023-04-25T10:45:55;6.53;;;5.03;;
7017;SDS011;3549;42.162;24.726;2023-04-25T10:48:27;7.43;;;5.50;;
7017;SDS011;3549;42.162;24.726;2023-04-25T10:51:07;7.43;;;5.23;;
7017;SDS011;3549;42.162;24.726;2023-04-25T10:53:34;6.17;;;5.10;;
7017;SDS011;3549;42.162;24.726;2023-04-25T10:55:59;5.33;;;4.77;;
7017;SDS011;3549;42.162;24.726;2023-04-25T10:58:25;8.93;;;4.80;;
7017;SDS011;3549;42.162;24.726;2023-04-25T11:00:51;5.20;;;4.70;;
7017;SDS011;3549;42.162;24.726;2023-04-25T11:03:16;6.03;;;5.17;;
7017;SDS011;3549;42.162;24.726;2023-04-25T11:05:42;5.30;;;4.70;;
7017;SDS011;3549;42.162;24.726;2023-04-25T11:08:13;5.40;;;4.60;;
7017;SDS011;3549;42.162;24.726;2023-04-25T11:10:42;6.60;;;4.77;;
7017;SDS011;3549;42.162;24.726;2023-04-25T11:13:07;5.90;;;5.07;;
7017;SDS011;3549;42.162;24.726;2023-04-25T11:15:33;6.70;;;3.80;;
7017;SDS011;3549;42.162;24.726;2023-04-25T11:17:58;4.97;;;3.73;;
7017;SDS011;3549;42.162;24.726;2023-04-25T11:20:25;4.23;;;3.80;;
7017;SDS011;3549;42.162;24.726;2023-04-25T11:22:53;6.40;;;4.30;;
7017;SDS011;3549;42.162;24.726;2023-04-25T11:25:22;5.73;;;4.10;;
7017;SDS011;3549;42.162;24.726;2023-04-25T11:27:51;5.87;;;4.30;;
7017;SDS011;3549;42.162;24.726;2023-04-25T11:30:17;6.80;;;4.57;;
7017;SDS011;3549;42.162;24.726;2023-04-25T11:32:44;5.20;;;4.03;;
7017;SDS011;3549;42.162;24.726;2023-04-25T11:35:10;6.60;;;4.30;;
7017;SDS011;3549;42.162;24.726;2023-04-25T11:37:36;5.10;;;4.20;;
7017;SDS011;3549;42.162;24.726;2023-04-25T11:40:04;5.43;;;4.13;;
7017;SDS011;3549;42.162;24.726;2023-04-25T11:42:31;5.40;;;4.07;;
7017;SDS011;3549;42.162;24.726;2023-04-25T11:44:57;8.73;;;4.43;;
7017;SDS011;3549;42.162;24.726;2023-04-25T11:47:30;4.90;;;3.72;;
7017;SDS011;3549;42.162;24.726;2023-04-25T11:49:57;3.80;;;2.80;;
7017;SDS011;3549;42.162;24.726;2023-04-25T11:52:44;5.50;;;4.05;;
7017;SDS011;3549;42.162;24.726;2023-04-25T11:55:14;6.68;;;4.50;;
7017;SDS011;3549;42.162;24.726;2023-04-25T11:57:40;7.97;;;4.07;;
7017;SDS011;3549;42.162;24.726;2023-04-25T12:00:10;5.57;;;4.50;;
7017;SDS011;3549;42.162;24.726;2023-04-25T12:02:41;6.13;;;4.43;;
7017;SDS011;3549;42.162;24.726;2023-04-25T12:05:12;6.63;;;4.75;;
7017;SDS011;3549;42.162;24.726;2023-04-25T12:07:38;5.70;;;4.57;;
7017;SDS011;3549;42.162;24.726;2023-04-25T12:10:07;6.95;;;4.88;;
7017;SDS011;3549;42.162;24.726;2023-04-25T12:12:35;7.20;;;4.00;;
7017;SDS011;3549;42.162;24.726;2023-04-25T12:17:36;5.60;;;3.65;;
7017;SDS011;3549;42.162;24.726;2023-04-25T12:20:07;6.18;;;4.70;;
7017;SDS011;3549;42.162;24.726;2023-04-25T12:22:34;6.35;;;4.45;;
7017;SDS011;3549;42.162;24.726;2023-04-25T12:25:01;8.90;;;4.85;;
7017;SDS011;3549;42.162;24.726;2023-04-25T12:27:30;8.48;;;5.68;;
7017;SDS011;3549;42.162;24.726;2023-04-25T12:29:56;8.30;;;6.38;;
7017;SDS011;3549;42.162;24.726;2023-04-25T12:32:22;9.52;;;6.20;;
7017;SDS011;3549;42.162;24.726;2023-04-25T12:34:48;7.50;;;6.30;;
7017;SDS011;3549;42.162;24.726;2023-04-25T12:37:13;12.52;;;6.30;;
7017;SDS011;3549;42.162;24.726;2023-04-25T12:39:39;10.07;;;5.97;;
7017;SDS011;3549;42.162;24.726;2023-04-25T12:42:04;8.15;;;5.50;;
7017;SDS011;3549;42.162;24.726;2023-04-25T12:44:31;7.63;;;5.40;;
7017;SDS011;3549;42.162;24.726;2023-04-25T12:46:56;7.10;;;5.05;;
7017;SDS011;3549;42.162;24.726;2023-04-25T12:49:22;7.05;;;5.20;;
7017;SDS011;3549;42.162;24.726;2023-04-25T12:51:48;9.65;;;4.88;;
7017;SDS011;3549;42.162;24.726;2023-04-25T12:54:13;6.80;;;5.65;;
7017;SDS011;3549;42.162;24.726;2023-04-25T12:56:39;5.47;;;4.80;;
7017;SDS011;3549;42.162;24.726;2023-04-25T12:59:05;11.15;;;4.72;;
7017;SDS011;3549;42.162;24.726;2023-04-25T13:01:31;6.05;;;4.60;;
7017;SDS011;3549;42.162;24.726;2023-04-25T13:03:56;5.57;;;3.97;;
7017;SDS011;3549;42.162;24.726;2023-04-25T13:06:22;6.17;;;4.10;;
7017;SDS011;3549;42.162;24.726;2023-04-25T13:08:48;6.13;;;4.30;;
7017;SDS011;3549;42.162;24.726;2023-04-25T13:11:13;15.93;;;10.33;;
7017;SDS011;3549;42.162;24.726;2023-04-25T13:13:43;8.60;;;5.77;;
7017;SDS011;3549;42.162;24.726;2023-04-25T13:16:09;5.97;;;3.80;;
7017;SDS011;3549;42.162;24.726;2023-04-25T13:18:35;6.77;;;4.10;;
7017;SDS011;3549;42.162;24.726;2023-04-25T13:21:00;7.40;;;4.50;;
7017;SDS011;3549;42.162;24.726;2023-04-25T13:23:26;5.60;;;3.30;;
7017;SDS011;3549;42.162;24.726;2023-04-25T13:25:53;6.80;;;3.67;;
7017;SDS011;3549;42.162;24.726;2023-04-25T13:28:20;5.80;;;3.70;;
7017;SDS011;3549;42.162;24.726;2023-04-25T13:30:46;5.23;;;3.50;;
7017;SDS011;3549;42.162;24.726;2023-04-25T13:33:13;6.13;;;3.90;;
7017;SDS011;3549;42.162;24.726;2023-04-25T13:35:39;7.57;;;4.27;;
7017;SDS011;3549;42.162;24.726;2023-04-25T13:38:05;6.03;;;4.20;;
7017;SDS011;3549;42.162;24.726;2023-04-25T13:40:31;7.00;;;4.40;;
7017;SDS011;3549;42.162;24.726;2023-04-25T13:42:57;5.93;;;3.30;;
7017;SDS011;3549;42.162;24.726;2023-04-25T13:45:23;11.80;;;6.00;;
7017;SDS011;3549;42.162;24.726;2023-04-25T13:47:48;10.97;;;6.17;;
7017;SDS011;3549;42.162;24.726;2023-04-25T13:50:14;7.00;;;3.67;;
7017;SDS011;3549;42.162;24.726;2023-04-25T13:52:41;7.03;;;4.60;;
7017;SDS011;3549;42.162;24.726;2023-04-25T13:55:07;8.87;;;5.83;;
7017;SDS011;3549;42.162;24.726;2023-04-25T13:57:35;10.90;;;7.97;;
7017;SDS011;3549;42.162;24.726;2023-04-25T14:00:01;9.33;;;6.17;;
7017;SDS011;3549;42.162;24.726;2023-04-25T14:02:36;6.37;;;4.17;;
7017;SDS011;3549;42.162;24.726;2023-04-25T14:05:02;6.38;;;4.78;;
7017;SDS011;3549;42.162;24.726;2023-04-25T14:07:29;3.65;;;3.15;;
7017;SDS011;3549;42.162;24.726;2023-04-25T14:09:55;4.40;;;3.00;;
7017;SDS011;3549;42.162;24.726;2023-04-25T14:12:22;2.70;;;2.50;;
7017;SDS011;3549;42.162;24.726;2023-04-25T14:14:47;2.60;;;2.40;;
7017;SDS011;3549;42.162;24.726;2023-04-25T14:17:13;3.27;;;2.90;;
7017;SDS011;3549;42.162;24.726;2023-04-25T14:19:38;3.63;;;3.33;;
7017;SDS011;3549;42.162;24.726;2023-04-25T14:22:08;2.55;;;2.25;;
7017;SDS011;3549;42.162;24.726;2023-04-25T14:24:33;5.82;;;4.50;;
7017;SDS011;3549;42.162;24.726;2023-04-25T14:26:59;2.63;;;2.42;;
7017;SDS011;3549;42.162;24.726;2023-04-25T14:29:25;2.93;;;2.60;;
7017;SDS011;3549;42.162;24.726;2023-04-25T14:31:51;3.67;;;2.60;;
7017;SDS011;3549;42.162;24.726;2023-04-25T14:34:16;6.07;;;4.30;;
7017;SDS011;3549;42.162;24.726;2023-04-25T14:36:42;2.83;;;2.60;;
7017;SDS011;3549;42.162;24.726;2023-04-25T14:39:07;3.03;;;2.73;;
7017;SDS011;3549;42.162;24.726;2023-04-25T14:41:33;3.37;;;3.03;;
7017;SDS011;3549;42.162;24.726;2023-04-25T14:43:59;4.03;;;2.30;;
7017;SDS011;3549;42.162;24.726;2023-04-25T14:46:24;3.17;;;2.60;;
7017;SDS011;3549;42.162;24.726;2023-04-25T14:48:50;4.45;;;3.75;;
7017;SDS011;3549;42.162;24.726;2023-04-25T14:51:16;4.65;;;3.60;;
7017;SDS011;3549;42.162;24.726;2023-04-25T14:53:42;3.38;;;2.70;;
7017;SDS011;3549;42.162;24.726;2023-04-25T14:56:07;4.63;;;2.75;;
7017;SDS011;3549;42.162;24.726;2023-04-25T14:58:33;3.00;;;2.33;;
7017;SDS011;3549;42.162;24.726;2023-04-25T15:00:59;3.72;;;3.25;;
7017;SDS011;3549;42.162;24.726;2023-04-25T15:03:25;3.35;;;2.80;;
7017;SDS011;3549;42.162;24.726;2023-04-25T15:05:51;4.33;;;2.90;;
7017;SDS011;3549;42.162;24.726;2023-04-25T15:08:19;3.83;;;3.30;;